Time;durP1;ratioP1;P1;durP2;ratioP2;P2;SDS_P1;SDS_P2;PMS_P1;PMS_P2;Temp;Humidity;BMP_temperature;BMP_pressure;BME280_temperature;BME280_humidity;BME280_pressure;Samples;Min_cycle;Max_cycle;Signal;HPM_P1;HPM_P2
2022/12/04 00:00:15;;;;;;;75.07;37.60;;;;;;;;;;6233455;28;20033;-78
2022/12/04 00:03:16;;;;;;;74.30;38.70;;;;;;;;;;6222726;28;20028;-78
2022/12/04 00:06:17;;;;;;;66.80;34.53;;;;;;;;;;6231216;28;20013;-79
2022/12/04 00:09:17;;;;;;;63.70;31.83;;;;;;;;;;6234513;28;20021;-78
2022/12/04 00:12:18;;;;;;;64.00;33.53;;;;;;;;;;6236609;28;20550;-78
2022/12/04 00:15:18;;;;;;;66.33;32.70;;;;;;;;;;6234105;28;20047;-79
2022/12/04 00:18:18;;;;;;;61.73;33.03;;;;;;;;;;6233826;28;20032;-78
2022/12/04 00:21:19;;;;;;;58.47;32.80;;;;;;;;;;6239254;28;20040;-78
2022/12/04 00:24:19;;;;;;;56.47;32.00;;;;;;;;;;6233726;28;20025;-78
2022/12/04 00:27:20;;;;;;;57.30;28.87;;;;;;;;;;6235199;28;20517;-78
2022/12/04 00:30:20;;;;;;;61.50;31.03;;;;;;;;;;6232698;28;20042;-78
2022/12/04 00:33:21;;;;;;;53.60;27.40;;;;;;;;;;6233464;28;20503;-78
2022/12/04 00:36:23;;;;;;;53.33;28.60;;;;;;;;;;6232884;28;20013;-78
2022/12/04 00:39:23;;;;;;;56.03;27.95;;;;;;;;;;6247236;28;20040;-78
2022/12/04 00:42:24;;;;;;;53.90;27.90;;;;;;;;;;6230650;28;20025;-78
2022/12/04 00:45:24;;;;;;;59.20;30.25;;;;;;;;;;6235127;28;20421;-78
2022/12/04 00:48:24;;;;;;;52.10;28.23;;;;;;;;;;6231499;28;20017;-78
2022/12/04 00:51:25;;;;;;;54.27;26.73;;;;;;;;;;6238996;28;20059;-78
2022/12/04 00:54:25;;;;;;;46.97;26.60;;;;;;;;;;6239005;28;20112;-78
2022/12/04 00:57:25;;;;;;;54.97;28.53;;;;;;;;;;6235174;28;20045;-78
2022/12/04 01:00:25;;;;;;;57.73;28.17;;;;;;;;;;6237061;28;20032;-78
2022/12/04 01:03:26;;;;;;;52.77;27.47;;;;;;;;;;6239744;28;20026;-78
2022/12/04 01:06:33;;;;;;;56.77;30.30;;;;;;;;;;6237656;28;20139;-78
2022/12/04 01:09:33;;;;;;;50.35;25.90;;;;;;;;;;6235552;28;20022;-77
2022/12/04 01:12:33;;;;;;;55.73;28.63;;;;;;;;;;6238042;28;20033;-77
2022/12/04 01:15:37;;;;;;;51.77;24.97;;;;;;;;;;6239879;28;20029;-77
2022/12/04 01:18:37;;;;;;;55.35;25.35;;;;;;;;;;6243023;28;20024;-78
2022/12/04 01:21:38;;;;;;;47.67;28.05;;;;;;;;;;6230644;28;20377;-77
2022/12/04 01:24:38;;;;;;;46.53;24.40;;;;;;;;;;6234837;28;21022;-78
2022/12/04 01:27:38;;;;;;;52.50;26.03;;;;;;;;;;6241584;28;20294;-79
2022/12/04 01:30:39;;;;;;;57.72;28.45;;;;;;;;;;6240455;28;20033;-78
2022/12/04 01:33:39;;;;;;;49.08;25.10;;;;;;;;;;6239212;28;20013;-78
2022/12/04 01:36:39;;;;;;;51.33;26.77;;;;;;;;;;6238230;28;20056;-77
2022/12/04 01:39:40;;;;;;;52.35;25.30;;;;;;;;;;6245293;28;20017;-78
2022/12/04 01:42:40;;;;;;;51.77;26.40;;;;;;;;;;6232293;28;20597;-77
2022/12/04 01:45:41;;;;;;;51.30;27.60;;;;;;;;;;6229225;28;20022;-77
2022/12/04 01:48:43;;;;;;;46.72;25.48;;;;;;;;;;6230043;28;20047;-76
2022/12/04 01:51:47;;;;;;;51.90;27.15;;;;;;;;;;6239020;28;20013;-78
2022/12/04 01:54:54;;;;;;;56.22;27.48;;;;;;;;;;6238601;28;20071;-77
2022/12/04 01:57:55;;;;;;;49.42;24.73;;;;;;;;;;6231292;28;20034;-78
2022/12/04 02:00:57;;;;;;;51.23;24.60;;;;;;;;;;6231522;28;20080;-79
2022/12/04 02:03:59;;;;;;;46.95;26.75;;;;;;;;;;6229816;28;20018;-78
2022/12/04 02:06:59;;;;;;;51.90;28.08;;;;;;;;;;6237418;28;20017;-78
2022/12/04 02:10:05;;;;;;;55.77;25.77;;;;;;;;;;6234660;28;20532;-78
2022/12/04 02:13:09;;;;;;;48.40;25.15;;;;;;;;;;6234025;28;20018;-77
2022/12/04 02:16:10;;;;;;;54.78;25.77;;;;;;;;;;6237425;28;20024;-78
2022/12/04 02:19:28;;;;;;;45.88;24.20;;;;;;;;;;6237421;28;20100;-77
2022/12/04 02:22:29;;;;;;;53.05;26.15;;;;;;;;;;6240266;28;20021;-77
2022/12/04 02:25:41;;;;;;;45.00;21.63;;;;;;;;;;6238018;28;20012;-78
2022/12/04 02:28:54;;;;;;;48.08;24.90;;;;;;;;;;6236258;28;20017;-77
2022/12/04 02:31:58;;;;;;;47.47;24.30;;;;;;;;;;6233653;28;20018;-78
2022/12/04 02:35:05;;;;;;;48.65;26.10;;;;;;;;;;6237234;28;20014;-77
2022/12/04 02:38:10;;;;;;;51.13;24.00;;;;;;;;;;6233338;28;20096;-77
2022/12/04 02:41:37;;;;;;;51.70;26.50;;;;;;;;;;6236995;28;20033;-78
2022/12/04 02:44:40;;;;;;;47.20;24.15;;;;;;;;;;6245254;28;20030;-77
2022/12/04 02:47:42;;;;;;;52.40;23.95;;;;;;;;;;6223633;28;20029;-77
2022/12/04 02:50:44;;;;;;;59.15;26.15;;;;;;;;;;6237054;28;20067;-79
2022/12/04 02:53:44;;;;;;;;;;;;;;;;;;6232573;28;20194;-77
2022/12/04 02:56:45;;;;;;;45.33;23.65;;;;;;;;;;6233407;28;19952;-77
2022/12/04 02:59:47;;;;;;;49.40;25.37;;;;;;;;;;6234766;28;20091;-78
2022/12/04 03:02:55;;;;;;;47.95;23.52;;;;;;;;;;6234763;28;20298;-78
2022/12/04 03:05:59;;;;;;;49.65;24.00;;;;;;;;;;6232949;28;20006;-78
2022/12/04 03:09:02;;;;;;;43.65;24.92;;;;;;;;;;6235958;28;20049;-77
2022/12/04 03:12:07;;;;;;;52.92;25.00;;;;;;;;;;6236260;28;20087;-77
2022/12/04 03:15:13;;;;;;;48.22;25.88;;;;;;;;;;6236225;28;20168;-78
2022/12/04 03:18:15;;;;;;;50.47;24.83;;;;;;;;;;6232996;28;20056;-78
2022/12/04 03:21:18;;;;;;;48.08;28.27;;;;;;;;;;6237631;28;20025;-77
2022/12/04 03:24:23;;;;;;;53.78;23.73;;;;;;;;;;6239592;28;20479;-77
2022/12/04 03:27:37;;;;;;;52.53;25.08;;;;;;;;;;6234215;28;20384;-79
2022/12/04 03:30:40;;;;;;;47.55;21.58;;;;;;;;;;6237343;28;20017;-77
2022/12/04 03:33:43;;;;;;;52.47;26.45;;;;;;;;;;6235981;28;20030;-79
2022/12/04 03:36:51;;;;;;;46.30;24.48;;;;;;;;;;6235179;28;20029;-78
2022/12/04 03:39:56;;;;;;;50.53;24.15;;;;;;;;;;6244471;28;20021;-77
2022/12/04 03:43:00;;;;;;;59.25;26.25;;;;;;;;;;6233682;28;20039;-77
2022/12/04 03:46:36;;;;;;;52.85;24.55;;;;;;;;;;6237663;28;20032;-77
2022/12/04 03:49:45;;;;;;;53.42;25.52;;;;;;;;;;6220573;28;20025;-78
2022/12/04 03:53:04;;;;;;;51.28;24.98;;;;;;;;;;6241301;28;20302;-78
2022/12/04 03:56:14;;;;;;;50.60;27.35;;;;;;;;;;6240405;28;20025;-78
2022/12/04 03:59:17;;;;;;;51.92;24.23;;;;;;;;;;6239434;28;20341;-78
2022/12/04 04:02:20;;;;;;;48.75;22.60;;;;;;;;;;6241407;28;20067;-78
2022/12/04 04:05:21;;;;;;;58.47;27.25;;;;;;;;;;6245693;28;20096;-77
2022/12/04 04:08:29;;;;;;;40.17;20.73;;;;;;;;;;6239910;28;20025;-78
2022/12/04 04:11:36;;;;;;;40.95;21.65;;;;;;;;;;6241043;28;20022;-78
2022/12/04 04:24:35;;;;;;;50.72;21.35;;;;;;;;;;6240906;28;20120;-78
2022/12/04 04:27:36;;;;;;;50.95;24.48;;;;;;;;;;6234723;28;20098;-78
2022/12/04 04:30:36;;;;;;;48.97;21.73;;;;;;;;;;6239770;28;20114;-78
2022/12/04 04:33:55;;;;;;;50.27;21.17;;;;;;;;;;6241232;28;20470;-78
2022/12/04 04:37:01;;;;;;;40.47;19.13;;;;;;;;;;6239271;28;20405;-78
2022/12/04 04:40:10;;;;;;;42.75;19.52;;;;;;;;;;6240891;28;20049;-78
2022/12/04 04:43:17;;;;;;;40.40;20.02;;;;;;;;;;6241836;28;20280;-78
2022/12/04 04:46:29;;;;;;;37.78;21.25;;;;;;;;;;6235019;28;20087;-78
2022/12/04 04:49:31;;;;;;;42.75;20.88;;;;;;;;;;6239964;28;20030;-78
2022/12/04 04:52:32;;;;;;;39.20;18.67;;;;;;;;;;6240717;28;20461;-78
2022/12/04 04:55:33;;;;;;;41.13;19.00;;;;;;;;;;6239642;28;20033;-78
2022/12/04 04:58:33;;;;;;;38.30;19.63;;;;;;;;;;6230933;28;20057;-78
2022/12/04 05:01:34;;;;;;;40.30;20.07;;;;;;;;;;6240538;28;20057;-78
2022/12/04 05:04:34;;;;;;;35.27;17.70;;;;;;;;;;6243179;28;20009;-78
2022/12/04 05:07:34;;;;;;;37.22;19.00;;;;;;;;;;6239594;28;20021;-78
2022/12/04 05:10:34;;;;;;;38.80;19.13;;;;;;;;;;6240246;28;20489;-78
2022/12/04 05:13:35;;;;;;;41.28;21.25;;;;;;;;;;6233907;28;20088;-78
2022/12/04 05:16:35;;;;;;;38.25;18.55;;;;;;;;;;6235745;28;20032;-78
2022/12/04 05:19:55;;;;;;;41.13;19.03;;;;;;;;;;6238989;28;20543;-78
2022/12/04 05:22:55;;;;;;;39.17;19.73;;;;;;;;;;6240036;28;20112;-79
2022/12/04 05:26:02;;;;;;;43.90;20.95;;;;;;;;;;6236072;28;20032;-78
2022/12/04 05:29:02;;;;;;;39.92;19.88;;;;;;;;;;6238721;28;20557;-78
2022/12/04 05:32:03;;;;;;;36.63;16.83;;;;;;;;;;6238350;28;20013;-78
2022/12/04 05:35:03;;;;;;;37.80;18.50;;;;;;;;;;6229839;28;20017;-78
2022/12/04 05:38:03;;;;;;;35.97;18.33;;;;;;;;;;6238703;28;20501;-78
2022/12/04 05:41:04;;;;;;;34.53;16.55;;;;;;;;;;6239043;28;20444;-78
2022/12/04 05:44:04;;;;;;;36.20;17.93;;;;;;;;;;6238724;28;20021;-79
2022/12/04 05:47:05;;;;;;;37.83;18.20;;;;;;;;;;6238967;28;20041;-78
2022/12/04 05:50:06;;;;;;;43.67;19.10;;;;;;;;;;6236220;28;20436;-78
2022/12/04 05:53:06;;;;;;;37.00;17.77;;;;;;;;;;6239090;28;20028;-78
2022/12/04 05:56:08;;;;;;;38.63;18.57;;;;;;;;;;6238704;28;20109;-78
2022/12/04 05:59:08;;;;;;;38.33;19.48;;;;;;;;;;6238413;28;20048;-78
2022/12/04 06:02:08;;;;;;;38.90;19.38;;;;;;;;;;6229605;28;20026;-78
2022/12/04 06:05:08;;;;;;;35.93;18.10;;;;;;;;;;6233134;28;20025;-78
2022/12/04 06:08:08;;;;;;;40.95;19.05;;;;;;;;;;6230810;28;20014;-78
2022/12/04 06:11:10;;;;;;;40.43;18.30;;;;;;;;;;6234574;28;20025;-78
2022/12/04 06:14:11;;;;;;;35.75;17.33;;;;;;;;;;6248324;28;20135;-78
2022/12/04 06:17:12;;;;;;;34.17;17.48;;;;;;;;;;6239077;28;20028;-78
2022/12/04 06:20:12;;;;;;;35.80;17.70;;;;;;;;;;6238433;28;20496;-77
2022/12/04 06:23:12;;;;;;;36.20;18.27;;;;;;;;;;6240683;28;20317;-77
2022/12/04 06:26:12;;;;;;;38.47;17.80;;;;;;;;;;6236327;28;20237;-78
2022/12/04 06:29:13;;;;;;;34.43;16.93;;;;;;;;;;6235008;28;20021;-78
2022/12/04 06:32:13;;;;;;;40.30;18.37;;;;;;;;;;6230696;28;20080;-77
2022/12/04 06:35:13;;;;;;;40.08;19.58;;;;;;;;;;6223095;28;20017;-78
2022/12/04 06:38:13;;;;;;;39.47;19.50;;;;;;;;;;6229775;28;20417;-78
2022/12/04 06:41:14;;;;;;;37.27;20.17;;;;;;;;;;6235709;28;20508;-78
2022/12/04 06:44:15;;;;;;;41.83;19.33;;;;;;;;;;6238278;28;20021;-78
2022/12/04 06:47:15;;;;;;;34.33;17.80;;;;;;;;;;6235493;28;20057;-78
2022/12/04 06:50:15;;;;;;;41.70;19.15;;;;;;;;;;6236641;28;20024;-78
2022/12/04 06:53:15;;;;;;;47.53;23.00;;;;;;;;;;6235343;28;20567;-78
2022/12/04 06:56:18;;;;;;;43.07;18.80;;;;;;;;;;6234335;28;20060;-78
2022/12/04 06:59:18;;;;;;;39.33;17.60;;;;;;;;;;6244204;28;20200;-78
2022/12/04 07:02:18;;;;;;;41.33;21.42;;;;;;;;;;6235055;28;20017;-77
2022/12/04 07:05:18;;;;;;;35.85;19.92;;;;;;;;;;6232893;28;20518;-78
2022/12/04 07:08:18;;;;;;;38.33;19.40;;;;;;;;;;6233215;28;20024;-78
2022/12/04 07:11:20;;;;;;;38.30;20.98;;;;;;;;;;6229562;28;20357;-77
2022/12/04 07:14:20;;;;;;;40.83;22.02;;;;;;;;;;6228846;28;20035;-77
2022/12/04 07:17:20;;;;;;;41.03;19.52;;;;;;;;;;6231601;28;20023;-78
2022/12/04 07:20:20;;;;;;;36.53;17.87;;;;;;;;;;6235237;28;20036;-78
2022/12/04 07:23:21;;;;;;;47.63;20.37;;;;;;;;;;6235318;28;20140;-77
2022/12/04 07:26:22;;;;;;;37.40;17.97;;;;;;;;;;6236215;28;20418;-78
2022/12/04 07:29:22;;;;;;;42.57;18.83;;;;;;;;;;6230742;28;20017;-77
2022/12/04 07:32:22;;;;;;;32.97;16.63;;;;;;;;;;6230636;28;20248;-77
2022/12/04 07:35:22;;;;;;;36.10;18.50;;;;;;;;;;6233781;28;20092;-77
2022/12/04 07:38:23;;;;;;;40.47;19.65;;;;;;;;;;6228425;28;20705;-77
2022/12/04 07:41:23;;;;;;;36.20;18.63;;;;;;;;;;6233430;28;20018;-77
2022/12/04 07:44:23;;;;;;;41.13;21.53;;;;;;;;;;6236240;28;20098;-77
2022/12/04 07:47:23;;;;;;;36.83;18.60;;;;;;;;;;6236727;28;20025;-77
2022/12/04 07:50:23;;;;;;;36.40;18.00;;;;;;;;;;6229675;28;20543;-78
2022/12/04 07:53:24;;;;;;;37.42;20.75;;;;;;;;;;6233673;28;20022;-77
2022/12/04 07:56:24;;;;;;;40.65;18.90;;;;;;;;;;6223245;28;20112;-77
2022/12/04 07:59:24;;;;;;;34.63;19.47;;;;;;;;;;6229586;28;20038;-77
2022/12/04 08:02:25;;;;;;;37.57;18.83;;;;;;;;;;6234459;28;20021;-77
2022/12/04 08:05:26;;;;;;;36.93;20.30;;;;;;;;;;6223550;28;20022;-78
2022/12/04 08:08:26;;;;;;;42.03;20.83;;;;;;;;;;6228403;28;20057;-77
2022/12/04 08:11:26;;;;;;;34.17;19.47;;;;;;;;;;6220983;28;20048;-79
2022/12/04 08:14:27;;;;;;;33.80;18.87;;;;;;;;;;6213911;28;20013;-77
2022/12/04 08:17:27;;;;;;;34.58;18.55;;;;;;;;;;6222498;28;20105;-77
2022/12/04 08:20:27;;;;;;;35.67;17.97;;;;;;;;;;6228053;28;20032;-77
2022/12/04 08:23:27;;;;;;;29.07;13.90;;;;;;;;;;6216885;28;20017;-76
2022/12/04 08:26:28;;;;;;;38.40;20.52;;;;;;;;;;6231451;28;20036;-77
2022/12/04 08:29:29;;;;;;;38.22;19.75;;;;;;;;;;6229846;28;20416;-77
2022/12/04 08:32:29;;;;;;;35.22;19.60;;;;;;;;;;6237709;28;20017;-76
2022/12/04 08:35:29;;;;;;;29.97;17.53;;;;;;;;;;6236349;28;20092;-77
2022/12/04 08:38:29;;;;;;;32.95;17.45;;;;;;;;;;6240122;28;20033;-76
2022/12/04 08:41:30;;;;;;;27.87;15.20;;;;;;;;;;6237765;28;20432;-76
2022/12/04 08:44:30;;;;;;;38.97;19.20;;;;;;;;;;6238750;28;20104;-76
2022/12/04 08:47:30;;;;;;;30.60;17.36;;;;;;;;;;6229910;28;20025;-76
2022/12/04 08:50:31;;;;;;;33.70;18.77;;;;;;;;;;6229959;28;20257;-77
2022/12/04 08:53:31;;;;;;;33.63;19.13;;;;;;;;;;6227446;28;20022;-77
2022/12/04 08:56:32;;;;;;;39.30;20.00;;;;;;;;;;6222441;28;20036;-77
2022/12/04 08:59:32;;;;;;;34.27;17.80;;;;;;;;;;6240460;28;20021;-77
2022/12/04 09:02:32;;;;;;;29.47;16.33;;;;;;;;;;6237282;28;20439;-77
2022/12/04 09:05:33;;;;;;;33.15;18.13;;;;;;;;;;6241412;28;20037;-78
2022/12/04 09:08:33;;;;;;;32.17;18.70;;;;;;;;;;6241435;28;20346;-75
2022/12/04 09:11:33;;;;;;;35.00;18.50;;;;;;;;;;6237779;28;20100;-75
2022/12/04 09:14:33;;;;;;;33.90;17.87;;;;;;;;;;6236918;28;20164;-75
2022/12/04 09:17:35;;;;;;;38.40;18.33;;;;;;;;;;6234900;28;20060;-75
2022/12/04 09:20:35;;;;;;;29.13;17.52;;;;;;;;;;6232944;28;20025;-75
2022/12/04 09:23:37;;;;;;;31.53;16.90;;;;;;;;;;6237051;28;20060;-74
2022/12/04 09:26:37;;;;;;;28.13;15.90;;;;;;;;;;6235526;28;20016;-74
2022/12/04 09:29:37;;;;;;;25.43;15.63;;;;;;;;;;6236644;28;20021;-74
2022/12/04 09:32:38;;;;;;;28.05;18.35;;;;;;;;;;6238708;28;20167;-74
2022/12/04 09:35:38;;;;;;;31.03;16.47;;;;;;;;;;6235118;28;20026;-74
2022/12/04 09:38:39;;;;;;;33.23;16.57;;;;;;;;;;6229584;28;20026;-73
2022/12/04 09:42:01;;;;;;;35.17;17.17;;;;;;;;;;6232266;28;20049;-74
2022/12/04 09:45:10;;;;;;;33.03;17.58;;;;;;;;;;6235228;28;20025;-73
2022/12/04 09:48:11;;;;;;;29.10;17.83;;;;;;;;;;6234763;28;20054;-74
2022/12/04 09:51:17;;;;;;;34.23;17.50;;;;;;;;;;6236505;28;20033;-74
2022/12/04 09:54:19;;;;;;;36.20;18.52;;;;;;;;;;6243417;28;20017;-75
2022/12/04 09:57:34;;;;;;;37.90;20.92;;;;;;;;;;6237069;28;20072;-74
2022/12/04 10:00:37;;;;;;;34.17;19.92;;;;;;;;;;6235619;28;20425;-74
2022/12/04 10:03:38;;;;;;;33.42;19.02;;;;;;;;;;6235004;28;20027;-75
2022/12/04 10:07:04;;;;;;;33.50;20.03;;;;;;;;;;6237433;28;20215;-74
2022/12/04 10:10:11;;;;;;;31.88;17.58;;;;;;;;;;6223944;28;20033;-74
2022/12/04 10:13:32;;;;;;;37.17;20.38;;;;;;;;;;6238356;28;20036;-75
2022/12/04 10:16:51;;;;;;;32.95;17.45;;;;;;;;;;6237279;28;20398;-74
2022/12/04 10:20:02;;;;;;;32.28;18.27;;;;;;;;;;6238396;28;20273;-74
2022/12/04 10:23:21;;;;;;;34.75;19.17;;;;;;;;;;6235958;28;20087;-75
2022/12/04 10:26:25;;;;;;;34.60;19.83;;;;;;;;;;6232481;28;20064;-76
2022/12/04 10:29:33;;;;;;;34.20;17.70;;;;;;;;;;6232748;28;20041;-75
2022/12/04 10:32:33;;;;;;;31.25;18.73;;;;;;;;;;6235044;28;20072;-74
2022/12/04 10:35:34;;;;;;;30.17;17.97;;;;;;;;;;6236086;28;20033;-75
2022/12/04 10:38:43;;;;;;;36.17;19.13;;;;;;;;;;6238060;28;20336;-74
2022/12/04 10:41:51;;;;;;;30.95;19.27;;;;;;;;;;6237761;28;20456;-74
2022/12/04 10:44:52;;;;;;;33.78;18.98;;;;;;;;;;6239023;28;20028;-75
2022/12/04 10:47:52;;;;;;;36.07;20.17;;;;;;;;;;6236994;28;20013;-74
2022/12/04 10:50:52;;;;;;;33.70;18.80;;;;;;;;;;6234709;28;20059;-74
2022/12/04 10:53:54;;;;;;;32.27;18.27;;;;;;;;;;6243706;28;20405;-74
2022/12/04 10:56:59;;;;;;;27.98;16.67;;;;;;;;;;6237156;28;20045;-74
2022/12/04 10:59:59;;;;;;;32.17;18.17;;;;;;;;;;6235618;28;20540;-75
2022/12/04 11:03:01;;;;;;;31.60;18.57;;;;;;;;;;6252678;28;20026;-75
2022/12/04 11:06:06;;;;;;;30.40;19.17;;;;;;;;;;6235548;28;20155;-75
2022/12/04 11:09:15;;;;;;;33.13;18.73;;;;;;;;;;6231925;28;20029;-74
2022/12/04 11:12:20;;;;;;;28.38;18.33;;;;;;;;;;6230781;28;20052;-74
2022/12/04 11:15:21;;;;;;;33.97;17.33;;;;;;;;;;6219640;28;20067;-74
2022/12/04 11:18:23;;;;;;;34.60;18.07;;;;;;;;;;6224937;28;20489;-75
2022/12/04 11:21:24;;;;;;;;;;;;;;;;;;6235604;28;20129;-75
2022/12/04 11:24:31;;;;;;;27.05;16.88;;;;;;;;;;6229982;28;19918;-74
2022/12/04 11:27:32;;;;;;;31.30;18.23;;;;;;;;;;6235392;28;20568;-74
2022/12/04 11:30:36;;;;;;;32.42;17.85;;;;;;;;;;6224757;28;20021;-74
2022/12/04 11:33:54;;;;;;;28.45;17.48;;;;;;;;;;6235327;28;20512;-74
2022/12/04 11:36:55;;;;;;;30.63;19.17;;;;;;;;;;6217959;28;20114;-75
2022/12/04 11:39:56;;;;;;;32.53;19.53;;;;;;;;;;6231313;28;20025;-74
2022/12/04 11:42:58;;;;;;;28.27;17.30;;;;;;;;;;6220723;28;20017;-74
2022/12/04 11:45:59;;;;;;;27.17;17.88;;;;;;;;;;6235996;28;20504;-74
2022/12/04 11:49:01;;;;;;;35.33;20.95;;;;;;;;;;6229439;28;20101;-74
2022/12/04 11:52:14;;;;;;;32.53;19.02;;;;;;;;;;6241022;28;20063;-74
2022/12/04 11:55:32;;;;;;;32.33;19.50;;;;;;;;;;6226244;28;20099;-75
2022/12/04 11:58:51;;;;;;;33.92;18.58;;;;;;;;;;6231623;28;20599;-75
2022/12/04 12:01:54;;;;;;;31.70;19.48;;;;;;;;;;6222262;28;20102;-74
2022/12/04 12:05:11;;;;;;;30.42;17.52;;;;;;;;;;6233498;28;20458;-74
2022/12/04 12:08:11;;;;;;;33.05;18.85;;;;;;;;;;6238585;28;20033;-75
2022/12/04 12:11:17;;;;;;;32.13;20.17;;;;;;;;;;6231564;28;20029;-74
2022/12/04 12:14:41;;;;;;;36.90;20.88;;;;;;;;;;6237197;28;20021;-75
2022/12/04 12:17:49;;;;;;;32.17;18.88;;;;;;;;;;6220142;28;20061;-74
2022/12/04 12:20:57;;;;;;;32.83;21.58;;;;;;;;;;6229799;28;20033;-74
2022/12/04 12:24:19;;;;;;;35.08;19.85;;;;;;;;;;6234053;28;20539;-74
2022/12/04 12:27:38;;;;;;;33.50;19.85;;;;;;;;;;6230767;28;20022;-75
2022/12/04 12:30:58;;;;;;;35.63;20.75;;;;;;;;;;6238509;28;20329;-74
2022/12/04 12:34:07;;;;;;;38.25;22.48;;;;;;;;;;6231420;28;20034;-74
2022/12/04 12:37:16;;;;;;;31.40;20.45;;;;;;;;;;6234778;28;20018;-74
2022/12/04 12:40:29;;;;;;;35.97;21.40;;;;;;;;;;6254968;28;20360;-74
2022/12/04 12:43:31;;;;;;;37.72;21.88;;;;;;;;;;6237500;28;20036;-74
2022/12/04 12:46:38;;;;;;;36.25;22.73;;;;;;;;;;6237494;28;20026;-74
2022/12/04 12:49:44;;;;;;;37.28;22.13;;;;;;;;;;6235835;28;20029;-74
2022/12/04 12:52:44;;;;;;;37.78;22.23;;;;;;;;;;6236872;28;20067;-75
2022/12/04 12:55:48;;;;;;;37.33;23.50;;;;;;;;;;6236954;28;20378;-74
2022/12/04 12:58:52;;;;;;;37.00;22.05;;;;;;;;;;6221942;28;20044;-75
2022/12/04 13:02:02;;;;;;;39.20;22.48;;;;;;;;;;6231045;28;20036;-75
2022/12/04 13:05:05;;;;;;;39.13;21.55;;;;;;;;;;6223682;28;20026;-74
2022/12/04 13:08:09;;;;;;;42.42;23.30;;;;;;;;;;6220447;28;20026;-74
2022/12/04 13:11:15;;;;;;;50.35;25.30;;;;;;;;;;6217562;28;20043;-75
2022/12/04 13:14:15;;;;;;;44.55;22.77;;;;;;;;;;6221166;28;20036;-72
2022/12/04 13:17:45;;;;;;;41.73;23.60;;;;;;;;;;6228989;28;20225;-74
2022/12/04 13:20:50;;;;;;;42.72;25.35;;;;;;;;;;6226584;28;20179;-74
2022/12/04 13:23:56;;;;;;;45.58;23.05;;;;;;;;;;6235443;28;20021;-74
2022/12/04 13:27:11;;;;;;;44.13;23.77;;;;;;;;;;6238379;28;20017;-74
2022/12/04 13:30:14;;;;;;;40.53;23.35;;;;;;;;;;6235950;28;20053;-73
2022/12/04 13:33:25;;;;;;;40.70;22.38;;;;;;;;;;6246266;28;20017;-74
2022/12/04 13:36:35;;;;;;;48.25;25.13;;;;;;;;;;6232713;28;20320;-74
2022/12/04 13:39:51;;;;;;;46.47;26.73;;;;;;;;;;6233078;28;20034;-75
2022/12/04 13:42:52;;;;;;;45.08;24.60;;;;;;;;;;6222839;28;20381;-75
2022/12/04 13:45:53;;;;;;;26.70;15.63;;;;;;;;;;6221695;28;20029;-75
2022/12/04 13:48:54;;;;;;;43.90;24.65;;;;;;;;;;6224114;28;20006;-74
2022/12/04 13:51:55;;;;;;;40.63;23.47;;;;;;;;;;6237176;28;20156;-74
2022/12/04 13:54:56;;;;;;;43.38;25.80;;;;;;;;;;6234792;28;20021;-75
2022/12/04 13:57:56;;;;;;;40.70;22.45;;;;;;;;;;6236267;28;20334;-75
2022/12/04 14:01:21;;;;;;;44.60;25.48;;;;;;;;;;6236330;28;20399;-75
2022/12/04 14:04:29;;;;;;;47.05;24.40;;;;;;;;;;6238173;28;20049;-75
2022/12/04 14:07:35;;;;;;;44.20;25.05;;;;;;;;;;6231726;28;20017;-74
2022/12/04 14:10:37;;;;;;;46.53;23.25;;;;;;;;;;6235592;28;20052;-74
2022/12/04 14:13:41;;;;;;;48.30;23.58;;;;;;;;;;6234695;28;20014;-75
2022/12/04 14:16:45;;;;;;;39.47;22.83;;;;;;;;;;6236108;28;20095;-74
2022/12/04 14:19:51;;;;;;;45.08;28.63;;;;;;;;;;6227289;28;20100;-74
2022/12/04 14:22:51;;;;;;;46.17;22.20;;;;;;;;;;6230107;28;20021;-75
2022/12/04 14:25:56;;;;;;;47.27;23.07;;;;;;;;;;6227709;28;20022;-75
2022/12/04 14:29:15;;;;;;;53.17;30.42;;;;;;;;;;6230753;28;20043;-75
2022/12/04 14:32:26;;;;;;;42.75;25.10;;;;;;;;;;6227528;28;20087;-75
2022/12/04 14:35:27;;;;;;;51.28;28.17;;;;;;;;;;6228760;28;20806;-75
2022/12/04 14:38:27;;;;;;;59.73;31.97;;;;;;;;;;6232843;28;20033;-75
2022/12/04 14:41:27;;;;;;;62.77;32.67;;;;;;;;;;6231354;28;20350;-75
2022/12/04 14:44:28;;;;;;;116.15;60.28;;;;;;;;;;6231892;28;20450;-75
2022/12/04 14:47:47;;;;;;;52.40;26.53;;;;;;;;;;6230892;28;20034;-75
2022/12/04 14:50:54;;;;;;;47.90;26.88;;;;;;;;;;6221739;28;20025;-75
2022/12/04 14:53:56;;;;;;;45.28;24.42;;;;;;;;;;6223631;28;20241;-75
2022/12/04 14:56:59;;;;;;;45.20;24.20;;;;;;;;;;6233747;28;20045;-75
2022/12/04 15:00:00;;;;;;;47.33;24.25;;;;;;;;;;6232886;28;20029;-76
2022/12/04 15:03:01;;;;;;;47.78;23.25;;;;;;;;;;6235174;28;20022;-75
2022/12/04 15:06:14;;;;;;;57.07;26.60;;;;;;;;;;6229946;28;20113;-75
2022/12/04 15:12:39;;;;;;;54.15;27.38;;;;;;;;;;6224853;28;20066;-75
2022/12/04 15:15:39;;;;;;;;;;;;;;;;;;6227848;28;20020;-75
2022/12/04 15:18:39;;;;;;;60.08;28.23;;;;;;;;;;6233633;28;19905;-75
2022/12/04 15:21:41;;;;;;;53.63;29.33;;;;;;;;;;6238576;28;20021;-75
2022/12/04 15:24:41;;;;;;;52.33;28.50;;;;;;;;;;6234314;28;20234;-75
2022/12/04 15:27:41;;;;;;;57.47;29.03;;;;;;;;;;6234661;28;20017;-75
2022/12/04 15:30:42;;;;;;;53.83;28.37;;;;;;;;;;6232649;28;20036;-75
2022/12/04 15:33:43;;;;;;;47.73;25.30;;;;;;;;;;6232046;28;20631;-75
2022/12/04 15:36:43;;;;;;;54.73;28.77;;;;;;;;;;6228437;28;20053;-75
2022/12/04 15:39:44;;;;;;;50.53;26.23;;;;;;;;;;6246611;28;20513;-74
2022/12/04 15:42:44;;;;;;;56.67;29.07;;;;;;;;;;6237329;28;20021;-76
2022/12/04 15:45:45;;;;;;;54.85;27.40;;;;;;;;;;6240004;28;20013;-74
2022/12/04 15:48:45;;;;;;;48.43;26.23;;;;;;;;;;6236626;28;20102;-74
2022/12/04 15:51:46;;;;;;;39.93;20.37;;;;;;;;;;6234731;28;20017;-75
2022/12/04 15:54:56;;;;;;;50.07;27.33;;;;;;;;;;6230336;28;20083;-75
2022/12/04 15:58:04;;;;;;;52.08;27.48;;;;;;;;;;6232976;28;20037;-75
2022/12/04 16:01:09;;;;;;;53.10;28.75;;;;;;;;;;6220848;28;20087;-75
2022/12/04 16:04:20;;;;;;;47.92;26.23;;;;;;;;;;6230731;28;20026;-75
2022/12/04 16:07:25;;;;;;;52.47;28.38;;;;;;;;;;6237210;28;20013;-75
2022/12/04 16:10:32;;;;;;;49.83;26.05;;;;;;;;;;6238907;28;20507;-75
2022/12/04 16:13:36;;;;;;;54.03;27.15;;;;;;;;;;6235033;28;20018;-75
2022/12/04 16:16:44;;;;;;;53.45;29.77;;;;;;;;;;6234848;28;20112;-75
2022/12/04 16:19:45;;;;;;;53.40;28.73;;;;;;;;;;6230760;28;20461;-76
2022/12/04 16:22:47;;;;;;;52.60;28.13;;;;;;;;;;6234916;28;20025;-75
2022/12/04 16:25:47;;;;;;;50.60;26.58;;;;;;;;;;6238508;28;20022;-75
2022/12/04 16:28:47;;;;;;;52.50;26.48;;;;;;;;;;6238802;28;20100;-75
2022/12/04 16:31:48;;;;;;;50.27;26.60;;;;;;;;;;6237115;28;20377;-75
2022/12/04 16:34:48;;;;;;;50.80;27.97;;;;;;;;;;6237149;28;20054;-75
2022/12/04 16:37:48;;;;;;;43.72;24.55;;;;;;;;;;6225122;28;20017;-75
2022/12/04 16:40:48;;;;;;;48.40;24.50;;;;;;;;;;6239350;28;20556;-75
2022/12/04 16:43:52;;;;;;;46.87;24.63;;;;;;;;;;6238431;28;20643;-75
2022/12/04 16:46:52;;;;;;;51.90;28.38;;;;;;;;;;6233829;28;20133;-76
2022/12/04 16:49:52;;;;;;;54.83;26.35;;;;;;;;;;6229717;28;20080;-75
2022/12/04 16:52:53;;;;;;;48.87;24.83;;;;;;;;;;6219104;28;20417;-75
2022/12/04 16:55:53;;;;;;;49.77;25.70;;;;;;;;;;6225305;28;20029;-74
2022/12/04 16:58:53;;;;;;;46.73;25.97;;;;;;;;;;6237384;28;20183;-75
2022/12/04 17:01:53;;;;;;;49.45;26.95;;;;;;;;;;6236037;28;20130;-75
2022/12/04 17:04:53;;;;;;;57.13;29.13;;;;;;;;;;6231226;28;20044;-75
2022/12/04 17:07:54;;;;;;;48.03;23.33;;;;;;;;;;6223453;28;20014;-75
2022/12/04 17:10:54;;;;;;;46.67;26.63;;;;;;;;;;6225423;28;20022;-75
2022/12/04 17:13:54;;;;;;;50.93;26.97;;;;;;;;;;6223551;28;20374;-75
2022/12/04 17:16:57;;;;;;;48.70;27.07;;;;;;;;;;6231898;28;20025;-75
2022/12/04 17:19:57;;;;;;;43.88;24.98;;;;;;;;;;6236015;28;20418;-75
2022/12/04 17:22:57;;;;;;;53.67;25.73;;;;;;;;;;6253821;28;20017;-75
2022/12/04 17:26:05;;;;;;;43.20;25.02;;;;;;;;;;6237356;28;20119;-75
2022/12/04 17:29:06;;;;;;;48.45;24.95;;;;;;;;;;6234094;28;20397;-75
2022/12/04 17:32:06;;;;;;;47.80;24.83;;;;;;;;;;6232854;28;20025;-75
2022/12/04 17:35:07;;;;;;;49.03;25.30;;;;;;;;;;6232241;28;20417;-76
2022/12/04 17:38:08;;;;;;;48.17;24.75;;;;;;;;;;6230931;28;20216;-75
2022/12/04 17:41:09;;;;;;;46.87;24.67;;;;;;;;;;6234398;28;20319;-75
2022/12/04 17:44:09;;;;;;;44.55;23.92;;;;;;;;;;6227536;28;20041;-76
2022/12/04 17:47:10;;;;;;;43.00;24.30;;;;;;;;;;6238077;28;20616;-75
2022/12/04 17:50:10;;;;;;;47.97;24.83;;;;;;;;;;6222151;28;20247;-75
2022/12/04 17:53:10;;;;;;;44.87;24.50;;;;;;;;;;6225533;28;20397;-75
2022/12/04 17:56:12;;;;;;;48.00;26.60;;;;;;;;;;6227422;28;20075;-74
2022/12/04 17:59:12;;;;;;;;;;;;;;;;;;6229561;28;20100;-75
2022/12/04 18:02:12;;;;;;;54.88;26.13;;;;;;;;;;6222050;28;19918;-75